sensor_id;sensor_type;location;lat;lon;timestamp;temperature;humidity
7117;DHT22;3600;48.568;7.870;2022-09-09T00:01:08;18.20;99.90
7117;DHT22;3600;48.568;7.870;2022-09-09T00:03:56;18.30;99.90
7117;DHT22;3600;48.568;7.870;2022-09-09T00:06:33;18.30;99.90
7117;DHT22;3600;48.568;7.870;2022-09-09T00:09:19;18.30;99.90
7117;DHT22;3600;48.568;7.870;2022-09-09T00:11:52;18.30;99.90
7117;DHT22;3600;48.568;7.870;2022-09-09T00:19:59;18.20;99.90
7117;DHT22;3600;48.568;7.870;2022-09-09T00:22:29;18.10;99.90
7117;DHT22;3600;48.568;7.870;2022-09-09T00:25:11;18.10;99.90
7117;DHT22;3600;48.568;7.870;2022-09-09T00:30:18;17.90;99.90
7117;DHT22;3600;48.568;7.870;2022-09-09T00:33:00;17.80;99.90
7117;DHT22;3600;48.568;7.870;2022-09-09T00:35:36;17.80;99.90
7117;DHT22;3600;48.568;7.870;2022-09-09T00:38:15;17.80;99.90
7117;DHT22;3600;48.568;7.870;2022-09-09T00:43:35;17.60;99.90
7117;DHT22;3600;48.568;7.870;2022-09-09T00:46:50;17.50;99.90
7117;DHT22;3600;48.568;7.870;2022-09-09T00:49:42;17.50;99.90
7117;DHT22;3600;48.568;7.870;2022-09-09T00:55:03;17.50;99.90
7117;DHT22;3600;48.568;7.870;2022-09-09T00:57:33;17.50;99.90
7117;DHT22;3600;48.568;7.870;2022-09-09T01:08:01;17.50;99.90
7117;DHT22;3600;48.568;7.870;2022-09-09T01:10:59;17.50;99.90
7117;DHT22;3600;48.568;7.870;2022-09-09T01:13:34;17.40;99.90
7117;DHT22;3600;48.568;7.870;2022-09-09T01:16:04;17.30;99.90
7117;DHT22;3600;48.568;7.870;2022-09-09T01:18:36;17.30;99.90
7117;DHT22;3600;48.568;7.870;2022-09-09T01:21:32;17.30;99.90
7117;DHT22;3600;48.568;7.870;2022-09-09T01:24:15;17.40;99.90
7117;DHT22;3600;48.568;7.870;2022-09-09T01:26:48;17.50;99.90
7117;DHT22;3600;48.568;7.870;2022-09-09T01:29:19;17.10;99.90
7117;DHT22;3600;48.568;7.870;2022-09-09T01:31:56;16.90;99.90
7117;DHT22;3600;48.568;7.870;2022-09-09T01:34:26;16.90;99.90
7117;DHT22;3600;48.568;7.870;2022-09-09T01:37:05;17.10;99.90
7117;DHT22;3600;48.568;7.870;2022-09-09T01:39:33;17.20;99.90
7117;DHT22;3600;48.568;7.870;2022-09-09T01:42:02;17.10;99.90
7117;DHT22;3600;48.568;7.870;2022-09-09T01:44:30;17.10;99.90
7117;DHT22;3600;48.568;7.870;2022-09-09T01:46:57;17.30;99.90
7117;DHT22;3600;48.568;7.870;2022-09-09T01:49:24;17.10;99.90
7117;DHT22;3600;48.568;7.870;2022-09-09T01:51:53;17.00;99.90
7117;DHT22;3600;48.568;7.870;2022-09-09T01:54:22;17.20;99.90
7117;DHT22;3600;48.568;7.870;2022-09-09T02:00:07;17.10;99.90
7117;DHT22;3600;48.568;7.870;2022-09-09T02:05:38;17.20;99.90
7117;DHT22;3600;48.568;7.870;2022-09-09T02:08:15;17.40;99.90
7117;DHT22;3600;48.568;7.870;2022-09-09T02:11:07;17.30;99.90
7117;DHT22;3600;48.568;7.870;2022-09-09T02:13:36;17.40;99.90
7117;DHT22;3600;48.568;7.870;2022-09-09T02:19:08;17.20;99.90
7117;DHT22;3600;48.568;7.870;2022-09-09T02:21:41;17.20;99.90
7117;DHT22;3600;48.568;7.870;2022-09-09T02:24:08;17.10;99.90
7117;DHT22;3600;48.568;7.870;2022-09-09T02:26:40;17.10;99.90
7117;DHT22;3600;48.568;7.870;2022-09-09T02:29:12;17.10;99.90
7117;DHT22;3600;48.568;7.870;2022-09-09T02:31:41;17.00;99.90
7117;DHT22;3600;48.568;7.870;2022-09-09T02:34:11;16.90;99.90
7117;DHT22;3600;48.568;7.870;2022-09-09T02:36:41;16.90;99.90
7117;DHT22;3600;48.568;7.870;2022-09-09T02:39:10;16.80;99.90
7117;DHT22;3600;48.568;7.870;2022-09-09T02:41:40;16.70;99.90
7117;DHT22;3600;48.568;7.870;2022-09-09T02:44:18;16.70;99.90
7117;DHT22;3600;48.568;7.870;2022-09-09T02:53:14;16.90;99.90
7117;DHT22;3600;48.568;7.870;2022-09-09T02:55:40;16.80;99.90
7117;DHT22;3600;48.568;7.870;2022-09-09T02:58:10;16.80;99.90
7117;DHT22;3600;48.568;7.870;2022-09-09T03:00:39;16.90;99.90
7117;DHT22;3600;48.568;7.870;2022-09-09T03:03:07;17.00;99.90
7117;DHT22;3600;48.568;7.870;2022-09-09T03:05:35;17.10;99.90
7117;DHT22;3600;48.568;7.870;2022-09-09T03:08:03;17.00;99.90
7117;DHT22;3600;48.568;7.870;2022-09-09T03:10:29;16.90;99.90
7117;DHT22;3600;48.568;7.870;2022-09-09T03:12:57;16.90;99.90
7117;DHT22;3600;48.568;7.870;2022-09-09T03:15:23;16.90;99.90
7117;DHT22;3600;48.568;7.870;2022-09-09T03:17:50;16.90;99.90
7117;DHT22;3600;48.568;7.870;2022-09-09T03:20:17;16.80;99.90
7117;DHT22;3600;48.568;7.870;2022-09-09T03:22:44;16.80;99.90
7117;DHT22;3600;48.568;7.870;2022-09-09T03:25:11;16.70;99.90
7117;DHT22;3600;48.568;7.870;2022-09-09T03:27:38;16.80;99.90
7117;DHT22;3600;48.568;7.870;2022-09-09T03:30:05;16.80;99.90
7117;DHT22;3600;48.568;7.870;2022-09-09T03:32:32;16.80;99.90
7117;DHT22;3600;48.568;7.870;2022-09-09T03:34:58;16.70;99.90
7117;DHT22;3600;48.568;7.870;2022-09-09T03:37:25;16.70;99.90
7117;DHT22;3600;48.568;7.870;2022-09-09T03:39:52;16.60;99.90
7117;DHT22;3600;48.568;7.870;2022-09-09T03:42:21;16.60;99.90
7117;DHT22;3600;48.568;7.870;2022-09-09T03:44:48;16.50;99.90
7117;DHT22;3600;48.568;7.870;2022-09-09T03:47:20;16.50;99.90
7117;DHT22;3600;48.568;7.870;2022-09-09T03:49:48;16.40;99.90
7117;DHT22;3600;48.568;7.870;2022-09-09T03:52:15;16.40;99.90
7117;DHT22;3600;48.568;7.870;2022-09-09T03:54:48;16.50;99.90
7117;DHT22;3600;48.568;7.870;2022-09-09T03:57:15;16.40;99.90
7117;DHT22;3600;48.568;7.870;2022-09-09T03:59:43;16.40;99.90
7117;DHT22;3600;48.568;7.870;2022-09-09T04:02:10;16.40;99.90
7117;DHT22;3600;48.568;7.870;2022-09-09T04:04:37;16.40;99.90
7117;DHT22;3600;48.568;7.870;2022-09-09T04:07:04;16.30;99.90
7117;DHT22;3600;48.568;7.870;2022-09-09T04:09:33;16.30;99.90
7117;DHT22;3600;48.568;7.870;2022-09-09T04:12:01;16.30;99.90
7117;DHT22;3600;48.568;7.870;2022-09-09T04:14:28;16.20;99.90
7117;DHT22;3600;48.568;7.870;2022-09-09T04:16:55;16.20;99.90
7117;DHT22;3600;48.568;7.870;2022-09-09T04:19:24;16.20;99.90
7117;DHT22;3600;48.568;7.870;2022-09-09T04:21:50;16.20;99.90
7117;DHT22;3600;48.568;7.870;2022-09-09T04:24:18;16.20;99.90
7117;DHT22;3600;48.568;7.870;2022-09-09T04:26:45;16.10;99.90
7117;DHT22;3600;48.568;7.870;2022-09-09T04:29:12;16.20;99.90
7117;DHT22;3600;48.568;7.870;2022-09-09T04:31:38;16.10;99.90
7117;DHT22;3600;48.568;7.870;2022-09-09T04:34:11;16.10;99.90
7117;DHT22;3600;48.568;7.870;2022-09-09T04:36:38;16.10;99.90
7117;DHT22;3600;48.568;7.870;2022-09-09T04:39:07;16.00;99.90
7117;DHT22;3600;48.568;7.870;2022-09-09T04:41:33;16.00;99.90
7117;DHT22;3600;48.568;7.870;2022-09-09T04:44:01;16.10;99.90
7117;DHT22;3600;48.568;7.870;2022-09-09T04:46:29;16.00;99.90
7117;DHT22;3600;48.568;7.870;2022-09-09T04:48:55;16.20;99.90
7117;DHT22;3600;48.568;7.870;2022-09-09T04:51:22;16.10;99.90
7117;DHT22;3600;48.568;7.870;2022-09-09T04:53:49;16.10;99.90
7117;DHT22;3600;48.568;7.870;2022-09-09T04:56:18;16.00;99.90
7117;DHT22;3600;48.568;7.870;2022-09-09T04:58:44;16.00;99.90
7117;DHT22;3600;48.568;7.870;2022-09-09T05:01:17;16.10;99.90
7117;DHT22;3600;48.568;7.870;2022-09-09T05:03:45;16.10;99.90
7117;DHT22;3600;48.568;7.870;2022-09-09T05:06:15;16.00;99.90
7117;DHT22;3600;48.568;7.870;2022-09-09T05:08:43;16.00;99.90
7117;DHT22;3600;48.568;7.870;2022-09-09T05:11:24;16.00;99.90
7117;DHT22;3600;48.568;7.870;2022-09-09T05:13:52;16.00;99.90
7117;DHT22;3600;48.568;7.870;2022-09-09T05:16:20;16.00;99.90
7117;DHT22;3600;48.568;7.870;2022-09-09T05:18:47;16.00;99.90
7117;DHT22;3600;48.568;7.870;2022-09-09T05:21:16;16.00;99.90
7117;DHT22;3600;48.568;7.870;2022-09-09T05:23:44;16.00;99.90
7117;DHT22;3600;48.568;7.870;2022-09-09T05:26:16;16.10;99.90
7117;DHT22;3600;48.568;7.870;2022-09-09T05:28:44;16.20;99.90
7117;DHT22;3600;48.568;7.870;2022-09-09T05:31:14;16.20;99.90
7117;DHT22;3600;48.568;7.870;2022-09-09T05:33:43;16.30;99.90
7117;DHT22;3600;48.568;7.870;2022-09-09T05:36:17;16.30;99.90
7117;DHT22;3600;48.568;7.870;2022-09-09T05:38:44;16.20;99.90
7117;DHT22;3600;48.568;7.870;2022-09-09T05:41:12;16.30;99.90
7117;DHT22;3600;48.568;7.870;2022-09-09T05:43:39;16.30;99.90
7117;DHT22;3600;48.568;7.870;2022-09-09T05:46:11;16.30;99.90
7117;DHT22;3600;48.568;7.870;2022-09-09T05:48:40;16.20;99.90
7117;DHT22;3600;48.568;7.870;2022-09-09T05:51:09;16.30;99.90
7117;DHT22;3600;48.568;7.870;2022-09-09T05:53:38;16.30;99.90
7117;DHT22;3600;48.568;7.870;2022-09-09T05:56:10;16.30;99.90
7117;DHT22;3600;48.568;7.870;2022-09-09T05:58:37;16.30;99.90
7117;DHT22;3600;48.568;7.870;2022-09-09T06:01:16;16.40;99.90
7117;DHT22;3600;48.568;7.870;2022-09-09T06:03:45;16.30;99.90
7117;DHT22;3600;48.568;7.870;2022-09-09T06:06:14;16.40;99.90
7117;DHT22;3600;48.568;7.870;2022-09-09T06:08:43;16.40;99.90
7117;DHT22;3600;48.568;7.870;2022-09-09T06:11:15;16.40;99.90
7117;DHT22;3600;48.568;7.870;2022-09-09T06:13:42;16.40;99.90
7117;DHT22;3600;48.568;7.870;2022-09-09T06:16:10;16.40;99.90
7117;DHT22;3600;48.568;7.870;2022-09-09T06:18:38;16.40;99.90
7117;DHT22;3600;48.568;7.870;2022-09-09T06:21:11;16.40;99.90
7117;DHT22;3600;48.568;7.870;2022-09-09T06:23:40;16.50;99.90
7117;DHT22;3600;48.568;7.870;2022-09-09T06:26:12;16.50;99.90
7117;DHT22;3600;48.568;7.870;2022-09-09T06:28:38;16.60;99.90
7117;DHT22;3600;48.568;7.870;2022-09-09T06:31:07;16.60;99.90
7117;DHT22;3600;48.568;7.870;2022-09-09T06:33:38;16.60;99.90
7117;DHT22;3600;48.568;7.870;2022-09-09T06:36:12;16.60;99.90
7117;DHT22;3600;48.568;7.870;2022-09-09T06:38:41;16.60;99.90
7117;DHT22;3600;48.568;7.870;2022-09-09T06:41:09;16.60;99.90
7117;DHT22;3600;48.568;7.870;2022-09-09T06:43:37;16.60;99.90
7117;DHT22;3600;48.568;7.870;2022-09-09T06:46:10;16.50;99.90
7117;DHT22;3600;48.568;7.870;2022-09-09T06:48:42;16.50;99.90
7117;DHT22;3600;48.568;7.870;2022-09-09T06:51:17;16.60;99.90
7117;DHT22;3600;48.568;7.870;2022-09-09T06:53:45;16.70;99.90
7117;DHT22;3600;48.568;7.870;2022-09-09T06:58:51;16.80;99.90
7117;DHT22;3600;48.568;7.870;2022-09-09T07:01:20;16.80;99.90
7117;DHT22;3600;48.568;7.870;2022-09-09T07:03:50;16.80;99.90
7117;DHT22;3600;48.568;7.870;2022-09-09T07:06:38;16.80;99.90
7117;DHT22;3600;48.568;7.870;2022-09-09T07:09:07;16.90;99.90
7117;DHT22;3600;48.568;7.870;2022-09-09T07:11:39;16.90;99.90
7117;DHT22;3600;48.568;7.870;2022-09-09T07:14:08;17.00;99.90
7117;DHT22;3600;48.568;7.870;2022-09-09T07:16:35;17.00;99.90
7117;DHT22;3600;48.568;7.870;2022-09-09T07:19:04;17.00;99.90
7117;DHT22;3600;48.568;7.870;2022-09-09T07:21:32;17.10;99.90
7117;DHT22;3600;48.568;7.870;2022-09-09T07:23:59;17.10;99.90
7117;DHT22;3600;48.568;7.870;2022-09-09T07:26:29;17.20;99.90
7117;DHT22;3600;48.568;7.870;2022-09-09T07:28:56;17.20;99.90
7117;DHT22;3600;48.568;7.870;2022-09-09T07:31:35;17.30;99.90
7117;DHT22;3600;48.568;7.870;2022-09-09T07:34:04;17.30;99.90
7117;DHT22;3600;48.568;7.870;2022-09-09T07:36:33;17.50;99.90
7117;DHT22;3600;48.568;7.870;2022-09-09T07:39:03;17.60;99.90
7117;DHT22;3600;48.568;7.870;2022-09-09T07:41:41;17.70;99.90
7117;DHT22;3600;48.568;7.870;2022-09-09T07:44:11;17.90;99.90
7117;DHT22;3600;48.568;7.870;2022-09-09T07:46:38;18.00;99.90
7117;DHT22;3600;48.568;7.870;2022-09-09T07:49:09;18.10;99.90
7117;DHT22;3600;48.568;7.870;2022-09-09T07:51:39;18.30;99.90
7117;DHT22;3600;48.568;7.870;2022-09-09T07:54:09;18.40;99.90
7117;DHT22;3600;48.568;7.870;2022-09-09T07:56:36;18.40;99.90
7117;DHT22;3600;48.568;7.870;2022-09-09T07:59:06;18.60;99.90
7117;DHT22;3600;48.568;7.870;2022-09-09T08:01:35;18.70;99.90
7117;DHT22;3600;48.568;7.870;2022-09-09T08:04:10;18.70;99.90
7117;DHT22;3600;48.568;7.870;2022-09-09T08:06:44;18.70;99.90
7117;DHT22;3600;48.568;7.870;2022-09-09T08:09:11;18.70;99.90
7117;DHT22;3600;48.568;7.870;2022-09-09T08:11:39;18.70;99.90
7117;DHT22;3600;48.568;7.870;2022-09-09T08:14:07;18.80;99.90
7117;DHT22;3600;48.568;7.870;2022-09-09T08:16:37;18.70;99.90
7117;DHT22;3600;48.568;7.870;2022-09-09T08:19:04;18.80;99.90
7117;DHT22;3600;48.568;7.870;2022-09-09T08:21:34;18.80;99.90
7117;DHT22;3600;48.568;7.870;2022-09-09T08:24:03;18.80;99.90
7117;DHT22;3600;48.568;7.870;2022-09-09T08:26:33;18.90;99.90
7117;DHT22;3600;48.568;7.870;2022-09-09T08:29:02;19.00;99.90
7117;DHT22;3600;48.568;7.870;2022-09-09T08:31:37;19.00;99.90
7117;DHT22;3600;48.568;7.870;2022-09-09T08:34:05;19.00;99.90
7117;DHT22;3600;48.568;7.870;2022-09-09T08:36:35;19.10;99.90
7117;DHT22;3600;48.568;7.870;2022-09-09T08:39:04;19.10;99.90
7117;DHT22;3600;48.568;7.870;2022-09-09T08:44:37;19.20;99.90
7117;DHT22;3600;48.568;7.870;2022-09-09T08:57:57;19.50;99.90
7117;DHT22;3600;48.568;7.870;2022-09-09T09:00:33;19.50;99.90
7117;DHT22;3600;48.568;7.870;2022-09-09T09:06:01;19.60;99.90
7117;DHT22;3600;48.568;7.870;2022-09-09T09:09:00;19.60;99.90
7117;DHT22;3600;48.568;7.870;2022-09-09T09:11:23;19.60;99.90
7117;DHT22;3600;48.568;7.870;2022-09-09T09:14:23;19.60;99.90
7117;DHT22;3600;48.568;7.870;2022-09-09T09:16:54;19.60;99.90
7117;DHT22;3600;48.568;7.870;2022-09-09T09:19:23;19.60;99.90
7117;DHT22;3600;48.568;7.870;2022-09-09T09:22:21;19.60;99.90
7117;DHT22;3600;48.568;7.870;2022-09-09T09:24:53;19.60;99.90
7117;DHT22;3600;48.568;7.870;2022-09-09T09:27:43;19.60;99.90
7117;DHT22;3600;48.568;7.870;2022-09-09T09:30:17;19.40;99.90
7117;DHT22;3600;48.568;7.870;2022-09-09T09:33:17;19.40;99.90
7117;DHT22;3600;48.568;7.870;2022-09-09T09:35:49;19.30;99.90
7117;DHT22;3600;48.568;7.870;2022-09-09T09:41:04;19.20;99.90
7117;DHT22;3600;48.568;7.870;2022-09-09T09:43:36;19.30;99.90
7117;DHT22;3600;48.568;7.870;2022-09-09T09:46:04;19.20;99.90
7117;DHT22;3600;48.568;7.870;2022-09-09T09:48:43;19.00;99.90
7117;DHT22;3600;48.568;7.870;2022-09-09T09:51:14;19.00;99.90
7117;DHT22;3600;48.568;7.870;2022-09-09T09:53:43;19.00;99.90
7117;DHT22;3600;48.568;7.870;2022-09-09T09:56:12;18.90;99.90
7117;DHT22;3600;48.568;7.870;2022-09-09T10:04:02;19.30;99.90
7117;DHT22;3600;48.568;7.870;2022-09-09T10:06:34;19.40;99.90
7117;DHT22;3600;48.568;7.870;2022-09-09T10:09:02;19.50;99.90
7117;DHT22;3600;48.568;7.870;2022-09-09T10:11:47;19.70;99.90
7117;DHT22;3600;48.568;7.870;2022-09-09T10:14:30;19.90;99.90
7117;DHT22;3600;48.568;7.870;2022-09-09T10:17:46;20.30;99.90
7117;DHT22;3600;48.568;7.870;2022-09-09T10:23:57;20.70;99.90
7117;DHT22;3600;48.568;7.870;2022-09-09T10:29:09;20.90;99.90
7117;DHT22;3600;48.568;7.870;2022-09-09T10:34:42;20.80;99.90
7117;DHT22;3600;48.568;7.870;2022-09-09T10:40:33;20.70;99.90
7117;DHT22;3600;48.568;7.870;2022-09-09T10:43:13;20.80;99.90
7117;DHT22;3600;48.568;7.870;2022-09-09T10:48:30;20.80;99.90
7117;DHT22;3600;48.568;7.870;2022-09-09T10:56:52;20.70;99.90
7117;DHT22;3600;48.568;7.870;2022-09-09T10:59:28;20.70;99.90
7117;DHT22;3600;48.568;7.870;2022-09-09T11:02:30;20.60;99.90
7117;DHT22;3600;48.568;7.870;2022-09-09T11:07:43;20.90;99.90
7117;DHT22;3600;48.568;7.870;2022-09-09T11:10:23;21.00;99.90
7117;DHT22;3600;48.568;7.870;2022-09-09T11:12:54;21.10;99.90
7117;DHT22;3600;48.568;7.870;2022-09-09T11:15:39;21.30;99.90
7117;DHT22;3600;48.568;7.870;2022-09-09T11:18:12;21.30;99.90
7117;DHT22;3600;48.568;7.870;2022-09-09T11:20:40;21.30;99.90
7117;DHT22;3600;48.568;7.870;2022-09-09T11:23:18;21.30;99.90
7117;DHT22;3600;48.568;7.870;2022-09-09T11:25:56;21.20;99.90
7117;DHT22;3600;48.568;7.870;2022-09-09T11:34:23;21.80;99.90
7117;DHT22;3600;48.568;7.870;2022-09-09T11:44:39;22.10;99.90
7117;DHT22;3600;48.568;7.870;2022-09-09T11:47:24;22.00;99.90
7117;DHT22;3600;48.568;7.870;2022-09-09T11:50:27;21.90;99.90
7117;DHT22;3600;48.568;7.870;2022-09-09T11:55:40;21.50;99.90
7117;DHT22;3600;48.568;7.870;2022-09-09T12:00:46;21.30;99.90
7117;DHT22;3600;48.568;7.870;2022-09-09T12:08:45;21.30;99.90
7117;DHT22;3600;48.568;7.870;2022-09-09T12:11:24;21.20;99.90
7117;DHT22;3600;48.568;7.870;2022-09-09T12:14:21;21.30;99.90
7117;DHT22;3600;48.568;7.870;2022-09-09T12:16:49;21.20;99.90
7117;DHT22;3600;48.568;7.870;2022-09-09T12:19:21;21.30;99.90
7117;DHT22;3600;48.568;7.870;2022-09-09T12:22:08;21.30;99.90
7117;DHT22;3600;48.568;7.870;2022-09-09T12:27:25;21.20;99.90
7117;DHT22;3600;48.568;7.870;2022-09-09T12:30:33;21.10;99.90
7117;DHT22;3600;48.568;7.870;2022-09-09T12:33:10;21.00;99.90
7117;DHT22;3600;48.568;7.870;2022-09-09T12:35:37;20.90;99.90
7117;DHT22;3600;48.568;7.870;2022-09-09T12:38:06;21.00;99.90
7117;DHT22;3600;48.568;7.870;2022-09-09T12:40:37;21.00;99.90
7117;DHT22;3600;48.568;7.870;2022-09-09T12:43:20;21.00;99.90
7117;DHT22;3600;48.568;7.870;2022-09-09T12:45:49;21.00;99.90
7117;DHT22;3600;48.568;7.870;2022-09-09T12:48:35;20.90;99.90
7117;DHT22;3600;48.568;7.870;2022-09-09T12:51:16;20.80;99.90
7117;DHT22;3600;48.568;7.870;2022-09-09T12:53:44;20.60;99.90
7117;DHT22;3600;48.568;7.870;2022-09-09T12:56:27;20.50;99.90
7117;DHT22;3600;48.568;7.870;2022-09-09T12:58:56;20.60;99.90
7117;DHT22;3600;48.568;7.870;2022-09-09T13:01:30;20.70;99.90
7117;DHT22;3600;48.568;7.870;2022-09-09T13:03:58;20.90;99.90
7117;DHT22;3600;48.568;7.870;2022-09-09T13:06:30;21.10;99.90
7117;DHT22;3600;48.568;7.870;2022-09-09T13:08:59;21.20;99.90
7117;DHT22;3600;48.568;7.870;2022-09-09T13:13:57;21.40;99.90
7117;DHT22;3600;48.568;7.870;2022-09-09T13:16:29;21.40;99.90
7117;DHT22;3600;48.568;7.870;2022-09-09T13:19:13;21.50;99.90
7117;DHT22;3600;48.568;7.870;2022-09-09T13:21:41;21.50;99.90
7117;DHT22;3600;48.568;7.870;2022-09-09T13:24:31;21.40;99.90
7117;DHT22;3600;48.568;7.870;2022-09-09T13:29:29;21.60;99.90
7117;DHT22;3600;48.568;7.870;2022-09-09T13:32:15;21.80;99.90
7117;DHT22;3600;48.568;7.870;2022-09-09T13:34:54;22.00;99.90
7117;DHT22;3600;48.568;7.870;2022-09-09T13:37:36;22.40;99.90
7117;DHT22;3600;48.568;7.870;2022-09-09T13:40:04;22.70;99.90
7117;DHT22;3600;48.568;7.870;2022-09-09T13:42:35;22.80;99.90
7117;DHT22;3600;48.568;7.870;2022-09-09T13:45:04;22.90;99.90
7117;DHT22;3600;48.568;7.870;2022-09-09T13:47:35;23.10;99.90
7117;DHT22;3600;48.568;7.870;2022-09-09T13:50:22;23.20;99.90
7117;DHT22;3600;48.568;7.870;2022-09-09T13:52:54;23.30;99.90
7117;DHT22;3600;48.568;7.870;2022-09-09T13:55:23;23.50;99.90
7117;DHT22;3600;48.568;7.870;2022-09-09T13:58:01;23.60;99.90
7117;DHT22;3600;48.568;7.870;2022-09-09T14:00:33;23.70;99.90
7117;DHT22;3600;48.568;7.870;2022-09-09T14:03:00;23.60;99.90
7117;DHT22;3600;48.568;7.870;2022-09-09T14:05:31;23.40;99.90
7117;DHT22;3600;48.568;7.870;2022-09-09T14:07:59;23.20;99.90
7117;DHT22;3600;48.568;7.870;2022-09-09T14:10:27;23.10;99.90
7117;DHT22;3600;48.568;7.870;2022-09-09T14:12:53;22.80;99.90
7117;DHT22;3600;48.568;7.870;2022-09-09T14:15:20;22.70;99.90
7117;DHT22;3600;48.568;7.870;2022-09-09T14:17:48;22.60;99.90
7117;DHT22;3600;48.568;7.870;2022-09-09T14:20:15;22.50;99.90
7117;DHT22;3600;48.568;7.870;2022-09-09T14:22:44;22.40;99.90
7117;DHT22;3600;48.568;7.870;2022-09-09T14:25:11;22.20;99.90
7117;DHT22;3600;48.568;7.870;2022-09-09T14:27:40;22.10;99.90
7117;DHT22;3600;48.568;7.870;2022-09-09T14:30:07;22.00;99.90
7117;DHT22;3600;48.568;7.870;2022-09-09T14:32:34;21.80;99.90
7117;DHT22;3600;48.568;7.870;2022-09-09T14:35:00;21.40;99.90
7117;DHT22;3600;48.568;7.870;2022-09-09T14:37:27;20.80;99.90
7117;DHT22;3600;48.568;7.870;2022-09-09T14:39:54;20.50;99.90
7117;DHT22;3600;48.568;7.870;2022-09-09T14:42:22;20.20;99.90
7117;DHT22;3600;48.568;7.870;2022-09-09T14:44:49;20.10;99.90
7117;DHT22;3600;48.568;7.870;2022-09-09T14:47:16;19.90;99.90
7117;DHT22;3600;48.568;7.870;2022-09-09T14:49:43;19.60;99.90
7117;DHT22;3600;48.568;7.870;2022-09-09T14:52:12;19.60;99.90
7117;DHT22;3600;48.568;7.870;2022-09-09T14:54:39;19.50;99.90
7117;DHT22;3600;48.568;7.870;2022-09-09T14:57:06;19.40;99.90
7117;DHT22;3600;48.568;7.870;2022-09-09T14:59:33;19.40;99.90
7117;DHT22;3600;48.568;7.870;2022-09-09T15:02:00;19.60;99.90
7117;DHT22;3600;48.568;7.870;2022-09-09T15:04:30;19.80;99.90
7117;DHT22;3600;48.568;7.870;2022-09-09T15:06:57;19.90;99.90
7117;DHT22;3600;48.568;7.870;2022-09-09T15:09:25;19.90;99.90
7117;DHT22;3600;48.568;7.870;2022-09-09T15:11:51;19.90;99.90
7117;DHT22;3600;48.568;7.870;2022-09-09T15:14:18;19.90;99.90
7117;DHT22;3600;48.568;7.870;2022-09-09T15:16:50;19.90;99.90
7117;DHT22;3600;48.568;7.870;2022-09-09T15:19:17;20.00;99.90
7117;DHT22;3600;48.568;7.870;2022-09-09T15:21:44;20.00;99.90
7117;DHT22;3600;48.568;7.870;2022-09-09T15:24:10;20.10;99.90
7117;DHT22;3600;48.568;7.870;2022-09-09T15:26:38;20.10;99.90
7117;DHT22;3600;48.568;7.870;2022-09-09T15:29:07;20.10;99.90
7117;DHT22;3600;48.568;7.870;2022-09-09T15:31:35;20.00;99.90
7117;DHT22;3600;48.568;7.870;2022-09-09T15:34:04;20.00;99.90
7117;DHT22;3600;48.568;7.870;2022-09-09T15:36:33;19.90;99.90
7117;DHT22;3600;48.568;7.870;2022-09-09T15:39:02;19.90;99.90
7117;DHT22;3600;48.568;7.870;2022-09-09T15:41:29;19.80;99.90
7117;DHT22;3600;48.568;7.870;2022-09-09T15:43:58;19.90;99.90
7117;DHT22;3600;48.568;7.870;2022-09-09T15:46:35;19.90;99.90
7117;DHT22;3600;48.568;7.870;2022-09-09T15:49:21;20.00;99.90
7117;DHT22;3600;48.568;7.870;2022-09-09T15:51:54;19.50;99.90
7117;DHT22;3600;48.568;7.870;2022-09-09T15:54:23;19.60;99.90
7117;DHT22;3600;48.568;7.870;2022-09-09T15:56:56;19.70;99.90
7117;DHT22;3600;48.568;7.870;2022-09-09T15:59:24;19.80;99.90
7117;DHT22;3600;48.568;7.870;2022-09-09T16:01:52;19.90;99.90
7117;DHT22;3600;48.568;7.870;2022-09-09T16:04:19;19.80;99.90
7117;DHT22;3600;48.568;7.870;2022-09-09T16:06:57;19.80;99.90
7117;DHT22;3600;48.568;7.870;2022-09-09T16:09:25;19.90;99.90
7117;DHT22;3600;48.568;7.870;2022-09-09T16:11:56;19.80;99.90
7117;DHT22;3600;48.568;7.870;2022-09-09T16:14:22;19.80;99.90
7117;DHT22;3600;48.568;7.870;2022-09-09T16:16:49;19.80;99.90
7117;DHT22;3600;48.568;7.870;2022-09-09T16:19:16;19.80;99.90
7117;DHT22;3600;48.568;7.870;2022-09-09T16:21:47;19.80;99.90
7117;DHT22;3600;48.568;7.870;2022-09-09T16:24:16;19.90;99.90
7117;DHT22;3600;48.568;7.870;2022-09-09T16:26:46;19.90;99.90
7117;DHT22;3600;48.568;7.870;2022-09-09T16:29:14;19.90;99.90
7117;DHT22;3600;48.568;7.870;2022-09-09T16:31:41;19.90;99.90
7117;DHT22;3600;48.568;7.870;2022-09-09T16:34:09;19.90;99.90
7117;DHT22;3600;48.568;7.870;2022-09-09T16:36:38;19.90;99.90
7117;DHT22;3600;48.568;7.870;2022-09-09T16:39:10;19.80;99.90
7117;DHT22;3600;48.568;7.870;2022-09-09T16:41:38;19.80;99.90
7117;DHT22;3600;48.568;7.870;2022-09-09T16:44:07;19.80;99.90
7117;DHT22;3600;48.568;7.870;2022-09-09T16:46:36;19.80;99.90
7117;DHT22;3600;48.568;7.870;2022-09-09T16:49:07;19.80;99.90
7117;DHT22;3600;48.568;7.870;2022-09-09T16:51:37;19.80;99.90
7117;DHT22;3600;48.568;7.870;2022-09-09T16:54:06;19.90;99.90
7117;DHT22;3600;48.568;7.870;2022-09-09T16:56:36;19.90;99.90
7117;DHT22;3600;48.568;7.870;2022-09-09T16:59:12;19.80;99.90
7117;DHT22;3600;48.568;7.870;2022-09-09T17:01:40;19.80;99.90
7117;DHT22;3600;48.568;7.870;2022-09-09T17:04:10;19.80;99.90
7117;DHT22;3600;48.568;7.870;2022-09-09T17:06:38;19.90;99.90
7117;DHT22;3600;48.568;7.870;2022-09-09T17:09:10;20.00;99.90
7117;DHT22;3600;48.568;7.870;2022-09-09T17:11:38;19.90;99.90
7117;DHT22;3600;48.568;7.870;2022-09-09T17:14:06;19.90;99.90
7117;DHT22;3600;48.568;7.870;2022-09-09T17:16:33;19.90;99.90
7117;DHT22;3600;48.568;7.870;2022-09-09T17:19:01;19.80;99.90
7117;DHT22;3600;48.568;7.870;2022-09-09T17:21:29;19.80;99.90
7117;DHT22;3600;48.568;7.870;2022-09-09T17:23:57;19.70;99.90
7117;DHT22;3600;48.568;7.870;2022-09-09T17:26:28;19.70;99.90
7117;DHT22;3600;48.568;7.870;2022-09-09T17:28:55;19.70;99.90
7117;DHT22;3600;48.568;7.870;2022-09-09T17:31:26;19.70;99.90
7117;DHT22;3600;48.568;7.870;2022-09-09T17:33:54;19.70;99.90
7117;DHT22;3600;48.568;7.870;2022-09-09T17:36:24;19.60;99.90
7117;DHT22;3600;48.568;7.870;2022-09-09T17:38:52;19.60;99.90
7117;DHT22;3600;48.568;7.870;2022-09-09T17:41:22;19.50;99.90
7117;DHT22;3600;48.568;7.870;2022-09-09T17:43:49;19.40;99.90
7117;DHT22;3600;48.568;7.870;2022-09-09T17:48:55;19.30;99.90
7117;DHT22;3600;48.568;7.870;2022-09-09T17:51:25;19.30;99.90
7117;DHT22;3600;48.568;7.870;2022-09-09T17:53:56;19.20;99.90
7117;DHT22;3600;48.568;7.870;2022-09-09T17:56:27;19.20;99.90
7117;DHT22;3600;48.568;7.870;2022-09-09T17:58:54;19.20;99.90
7117;DHT22;3600;48.568;7.870;2022-09-09T18:01:23;19.10;99.90
7117;DHT22;3600;48.568;7.870;2022-09-09T18:03:50;19.00;99.90
7117;DHT22;3600;48.568;7.870;2022-09-09T18:06:21;19.00;99.90
7117;DHT22;3600;48.568;7.870;2022-09-09T18:08:50;19.00;99.90
7117;DHT22;3600;48.568;7.870;2022-09-09T18:11:19;19.00;99.90
7117;DHT22;3600;48.568;7.870;2022-09-09T18:13:51;18.90;99.90
7117;DHT22;3600;48.568;7.870;2022-09-09T18:16:19;18.80;99.90
7117;DHT22;3600;48.568;7.870;2022-09-09T18:18:47;18.80;99.90
7117;DHT22;3600;48.568;7.870;2022-09-09T18:21:16;18.80;99.90
7117;DHT22;3600;48.568;7.870;2022-09-09T18:23:45;18.80;99.90
7117;DHT22;3600;48.568;7.870;2022-09-09T18:26:22;18.80;99.90
7117;DHT22;3600;48.568;7.870;2022-09-09T18:28:51;18.70;99.90
7117;DHT22;3600;48.568;7.870;2022-09-09T18:31:20;18.70;99.90
7117;DHT22;3600;48.568;7.870;2022-09-09T18:33:49;18.70;99.90